CYAZ/YAZ METAR and TAF weather

Enter ICAO airport designator
Station Type Date Time Source
CYAZ METAR 2019/04/18 21:00 UTC NOAA

CYAZ 182100Z 14012G18KT 1SM RA BR OVC004 10/10 A3011 RMK FG1ST7 SLP197


Station Type Date Time Source
CYAZ Decoded METAR 2019/04/18 21:00 UTC NOAA

Tofino Airport, Canada (CYAZ) 49-05N 125-46W
Apr 18, 2019 - 05:00 PM EDT / 2019.04.18 2100 UTC
Wind: from the SE (140 degrees) at 14 MPH (12 KT) gusting to 21 MPH (18 KT):0
Visibility: 1 mile(s):0
Sky conditions: overcast
Weather: rain; mist
Temperature: 50 F (10 C)
Dew Point: 50 F (10 C)
Relative Humidity: 100%
Pressure (altimeter): 30.11 in. Hg (1019 hPa)
ob: CYAZ 182100Z 14012G18KT 1SM RA BR OVC004 10/10 A3011 RMK FG1ST7 SLP197
cycle: 21

Station Type Date Time Source
CYAZ TAF 2019/04/18 20:18 UTC NOAA

TAF
AMD TAF
AMD CYAZ 182016Z 1820/1901 14010G20KT 1SM RA OVC003
TEMPO 1820/1901 2SM -RA BR OVC006
RMK NXT FCST WILL BE ISSUED AT 191445Z

Example: see airport list